Time;durP1;ratioP1;P1;durP2;ratioP2;P2;SDS_P1;SDS_P2;PMS_P1;PMS_P2;Temp;Humidity;BMP_temperature;BMP_pressure;BME280_temperature;BME280_humidity;BME280_pressure;Samples;Min_cycle;Max_cycle;Signal;HPM_P1;HPM_P2
2022/05/01 00:01:51;;;;;;;2.25;1.60;;;;;;;9.49;78.80;95006.53;5032974;28;20212;-78
2022/05/01 00:04:19;;;;;;;5.95;2.75;;;;;;;9.47;78.85;95006.81;5033121;28;20605;-80
2022/05/01 00:06:46;;;;;;;4.65;2.58;;;;;;;9.51;78.50;95007.81;5033934;28;20200;-80
2022/05/01 00:09:13;;;;;;;2.00;1.52;;;;;;;9.61;77.68;94999.41;5033581;28;20291;-80
2022/05/01 00:11:41;;;;;;;1.63;1.40;;;;;;;9.76;77.07;94995.50;5033928;28;20200;-79
2022/05/01 00:14:08;;;;;;;3.30;2.30;;;;;;;9.82;76.69;94996.16;5033607;28;20695;-78
2022/05/01 00:16:35;;;;;;;2.90;1.90;;;;;;;9.88;76.34;94987.56;5033637;28;20216;-79
2022/05/01 00:19:01;;;;;;;2.17;1.92;;;;;;;9.92;76.28;94985.84;5034029;28;20204;-80
2022/05/01 00:21:30;;;;;;;3.60;2.25;;;;;;;9.98;76.09;94984.56;5033491;28;20228;-80
2022/05/01 00:23:57;;;;;;;4.03;3.15;;;;;;;9.92;76.21;94991.25;5034788;28;20247;-80
2022/05/01 00:26:24;;;;;;;3.80;2.42;;;;;;;9.87;76.73;94996.81;5033349;28;20243;-80
2022/05/01 00:28:51;;;;;;;2.28;1.80;;;;;;;9.83;76.86;94987.75;5033482;28;20740;-76
2022/05/01 00:31:19;;;;;;;3.15;2.05;;;;;;;9.81;76.99;94995.38;5033433;28;20203;-80
2022/05/01 00:36:32;;;;;;;2.75;2.47;;;;;;;9.74;77.42;94995.00;5033415;28;20605;-77
2022/05/01 00:39:02;;;;;;;5.03;3.42;;;;;;;9.74;77.61;94988.78;5033806;28;20203;-78
2022/05/01 00:41:30;;;;;;;4.30;2.67;;;;;;;9.75;77.66;94985.78;5033794;28;20216;-82
2022/05/01 00:44:03;;;;;;;4.32;2.78;;;;;;;9.68;78.09;94990.06;5033246;28;20327;-80
2022/05/01 00:46:31;;;;;;;4.20;2.75;;;;;;;9.50;78.63;94994.59;5033113;28;20208;-81
2022/05/01 00:49:00;;;;;;;3.28;2.25;;;;;;;9.35;79.53;94987.69;5033594;28;20345;-78
2022/05/01 00:51:29;;;;;;;3.75;2.13;;;;;;;9.26;80.00;94995.75;5033400;28;20555;-79
2022/05/01 00:53:58;;;;;;;5.63;2.90;;;;;;;9.16;80.34;94990.59;5032488;28;20228;-78
2022/05/01 00:56:25;;;;;;;6.68;3.25;;;;;;;9.11;80.89;94987.25;5033090;28;20200;-77
2022/05/01 00:58:52;;;;;;;4.38;3.28;;;;;;;9.19;80.86;94994.59;5033160;28;20204;-80
2022/05/01 01:01:20;;;;;;;3.47;2.42;;;;;;;9.19;80.76;94989.97;5031802;28;20299;-80
2022/05/01 01:03:47;;;;;;;4.40;3.05;;;;;;;9.19;80.80;94997.28;5032291;28;20200;-80
2022/05/01 01:06:14;;;;;;;4.68;3.40;;;;;;;9.16;81.07;94985.19;5032227;28;20196;-81
2022/05/01 01:08:43;;;;;;;2.25;1.70;;;;;;;9.06;81.43;94985.47;5032533;28;20240;-79
2022/05/01 01:11:11;;;;;;;5.43;3.00;;;;;;;9.04;81.70;94987.66;5032995;28;20205;-79
2022/05/01 01:13:38;;;;;;;4.90;2.15;;;;;;;9.03;81.88;94994.16;5032760;28;20243;-79
2022/05/01 01:16:09;;;;;;;2.70;2.15;;;;;;;9.03;81.96;95002.28;5032537;28;20299;-74
2022/05/01 01:18:39;;;;;;;4.57;2.90;;;;;;;9.04;81.96;94987.66;5032213;28;20246;-74
2022/05/01 01:21:09;;;;;;;4.68;3.20;;;;;;;9.06;81.90;94990.84;5031347;28;20235;-80
2022/05/01 01:23:36;;;;;;;4.22;2.80;;;;;;;9.08;81.91;94995.97;5033015;28;20284;-81
2022/05/01 01:26:04;;;;;;;5.32;3.72;;;;;;;9.05;82.07;94983.84;5032670;28;20205;-80
2022/05/01 01:28:32;;;;;;;7.85;4.68;;;;;;;9.02;82.60;94981.75;5032537;28;20204;-79
2022/05/01 01:33:48;;;;;;;4.22;2.92;;;;;;;8.95;83.19;94983.31;5032147;28;20302;-80
2022/05/01 01:36:17;;;;;;;6.43;3.45;;;;;;;8.95;83.30;94978.72;5031868;28;20214;-77
2022/05/01 01:38:44;;;;;;;3.75;2.22;;;;;;;8.93;83.41;94986.31;5029175;28;20205;-80
2022/05/01 01:41:14;;;;;;;6.03;3.67;;;;;;;8.89;83.63;94985.34;5012707;28;20232;-80
2022/05/01 01:43:43;;;;;;;5.93;3.20;;;;;;;8.89;83.74;94974.53;5028895;28;20679;-75
2022/05/01 01:46:10;;;;;;;9.55;4.88;;;;;;;8.86;83.91;94981.38;5031947;28;20208;-72
2022/05/01 01:48:37;;;;;;;4.15;3.10;;;;;;;8.90;83.84;94973.44;5031792;28;20211;-80
2022/05/01 01:51:06;;;;;;;6.57;3.10;;;;;;;8.93;83.84;94972.81;5031881;28;20208;-79
2022/05/01 01:53:36;;;;;;;3.53;2.60;;;;;;;8.94;83.95;94971.72;5031839;28;20523;-79
2022/05/01 01:56:07;;;;;;;6.18;3.83;;;;;;;8.93;84.42;94967.41;5032924;28;20223;-75
2022/05/01 01:58:34;;;;;;;5.20;3.80;;;;;;;8.87;84.81;94971.38;5032191;28;20192;-81
2022/05/01 02:01:01;;;;;;;5.95;3.85;;;;;;;8.81;85.07;94969.88;5031480;28;20199;-80
2022/05/01 02:03:28;;;;;;;7.95;4.55;;;;;;;8.73;85.59;94970.63;5031791;28;20197;-80
2022/05/01 02:05:55;;;;;;;6.05;3.40;;;;;;;8.68;85.86;94968.84;5031353;28;20204;-74
2022/05/01 02:08:22;;;;;;;8.07;4.40;;;;;;;8.68;85.92;94968.84;5032091;28;20196;-77
2022/05/01 02:10:51;;;;;;;8.25;3.88;;;;;;;8.63;86.34;94976.25;5031079;28;20599;-79
2022/05/01 02:13:18;;;;;;;6.35;3.35;;;;;;;8.60;86.68;94966.09;5031610;28;20220;-76
2022/05/01 02:15:46;;;;;;;4.90;2.85;;;;;;;8.57;86.63;94961.28;5031363;28;20204;-79
2022/05/01 02:18:12;;;;;;;4.25;2.50;;;;;;;8.60;86.69;94960.69;5031576;28;20212;-77
2022/05/01 02:23:30;;;;;;;9.75;5.63;;;;;;;8.55;87.05;94970.50;5020339;28;20223;-80
2022/05/01 02:25:59;;;;;;;8.27;4.10;;;;;;;8.52;87.38;94960.31;5037719;28;20578;-79
2022/05/01 02:28:26;;;;;;;10.15;5.22;;;;;;;8.48;87.34;94970.09;5039550;28;20290;-80
2022/05/01 02:30:53;;;;;;;6.05;3.67;;;;;;;8.45;87.43;94970.75;5031214;28;20211;-78
2022/05/01 02:33:21;;;;;;;10.70;4.28;;;;;;;8.49;87.45;94968.22;5031028;28;20666;-81
2022/05/01 02:35:48;;;;;;;5.93;3.20;;;;;;;8.45;87.48;94957.25;5031147;28;20227;-77
2022/05/01 02:38:15;;;;;;;5.05;3.53;;;;;;;8.45;87.58;94959.16;5031076;28;20232;-78
2022/05/01 02:40:42;;;;;;;6.35;3.90;;;;;;;8.45;87.67;94959.16;5017991;28;20220;-75
2022/05/01 02:43:11;;;;;;;7.90;4.78;;;;;;;8.39;87.94;94961.16;5030802;28;20224;-78
2022/05/01 02:45:38;;;;;;;10.32;4.75;;;;;;;8.33;88.07;94964.28;5018189;28;20200;-79
2022/05/01 02:48:06;;;;;;;8.07;4.70;;;;;;;8.29;88.46;94960.56;5031327;28;20239;-80
2022/05/01 02:50:32;;;;;;;6.80;4.15;;;;;;;8.34;88.13;94963.97;5031184;28;20606;-75
2022/05/01 02:52:59;;;;;;;11.95;5.15;;;;;;;8.34;88.13;94957.75;5031027;28;20204;-80
2022/05/01 02:55:26;;;;;;;8.80;3.50;;;;;;;8.29;88.39;94950.56;5031290;28;20236;-77
2022/05/01 02:57:54;;;;;;;11.02;5.85;;;;;;;8.26;88.78;94967.38;5030783;28;20200;-76
2022/05/01 03:00:22;;;;;;;12.52;6.05;;;;;;;8.23;88.80;94959.88;5030700;28;20235;-79
2022/05/01 03:02:51;;;;;;;8.00;4.53;;;;;;;8.19;89.03;94967.78;5030530;28;20247;-79
2022/05/01 03:05:18;;;;;;;9.30;5.18;;;;;;;8.15;89.24;94968.69;5031394;28;20204;-81
2022/05/01 03:07:45;;;;;;;9.65;6.15;;;;;;;8.15;89.45;94966.78;5030526;28;20200;-80
2022/05/01 03:10:12;;;;;;;7.30;4.43;;;;;;;8.15;89.39;94966.00;5031016;28;20205;-76
2022/05/01 03:12:39;;;;;;;11.10;6.13;;;;;;;8.11;89.59;94962.28;5030319;28;20220;-81
2022/05/01 03:15:07;;;;;;;11.57;6.25;;;;;;;8.11;89.51;94954.22;5030453;28;20695;-79
2022/05/01 03:23:05;;;;;;;8.48;4.03;;;;;;;8.17;88.79;94964.59;5018912;28;20271;-80
2022/05/01 03:25:32;;;;;;;7.70;4.93;;;;;;;8.17;88.79;94958.41;5036282;28;20594;-79
2022/05/01 03:27:59;;;;;;;6.03;4.20;;;;;;;8.24;88.58;94968.75;5034480;28;20207;-78
2022/05/01 03:30:27;;;;;;;10.48;5.50;;;;;;;8.30;88.15;94976.44;5033927;28;20664;-79
2022/05/01 03:32:56;;;;;;;4.65;3.10;;;;;;;8.42;87.77;94976.75;5034119;28;20227;-81
2022/05/01 03:35:23;;;;;;;10.07;6.00;;;;;;;8.59;86.90;94986.09;5034645;28;20239;-81
2022/05/01 03:37:50;;;;;;;7.50;4.97;;;;;;;8.80;85.80;94982.59;5033953;28;20232;-79
2022/05/01 03:40:18;;;;;;;7.45;4.50;;;;;;;9.02;85.17;94979.06;5021059;28;20271;-80
2022/05/01 03:42:45;;;;;;;8.50;4.35;;;;;;;9.14;84.09;94983.94;5034145;28;20228;-78
2022/05/01 03:45:12;;;;;;;7.68;4.65;;;;;;;9.37;83.52;94990.09;5033851;28;20790;-80
2022/05/01 03:47:40;;;;;;;12.30;5.63;;;;;;;9.58;82.63;94991.91;5034504;28;20212;-80
2022/05/01 03:50:09;;;;;;;11.82;6.80;;;;;;;9.81;81.82;94995.38;5033843;28;20254;-80
2022/05/01 03:52:37;;;;;;;9.00;6.35;;;;;;;10.03;80.55;94993.66;5034053;28;20208;-82
2022/05/01 03:55:05;;;;;;;8.00;5.32;;;;;;;10.29;79.71;94986.41;5034170;28;20660;-80
2022/05/01 03:57:32;;;;;;;9.50;4.75;;;;;;;10.47;78.87;94989.94;5034182;28;20263;-79
2022/05/01 03:59:59;;;;;;;7.68;5.63;;;;;;;10.55;78.43;94987.25;5034094;28;20212;-79
2022/05/01 04:02:26;;;;;;;6.40;3.67;;;;;;;10.71;77.53;94994.88;5033985;28;20570;-78
2022/05/01 04:04:53;;;;;;;7.30;4.72;;;;;;;10.98;76.61;94991.84;5033603;28;20209;-75
2022/05/01 04:07:21;;;;;;;10.98;6.60;;;;;;;11.51;74.52;94996.03;5034027;28;20231;-81
2022/05/01 04:09:48;;;;;;;6.85;5.10;;;;;;;11.83;73.48;95000.91;5033457;28;20209;-77
2022/05/01 04:12:16;;;;;;;10.43;7.05;;;;;;;12.04;72.39;94996.31;5034021;28;20291;-80
2022/05/01 04:14:43;;;;;;;9.63;5.80;;;;;;;12.26;71.31;94994.47;5033626;28;20232;-80
2022/05/01 04:17:10;;;;;;;10.35;6.20;;;;;;;12.51;70.86;95001.66;5033640;28;20258;-80
2022/05/01 04:19:37;;;;;;;11.90;6.45;;;;;;;12.91;69.34;94993.03;5033551;28;20662;-79
2022/05/01 04:22:05;;;;;;;7.63;4.97;;;;;;;13.14;68.30;94994.25;5033423;28;20236;-79
2022/05/01 04:24:33;;;;;;;9.95;6.03;;;;;;;12.99;68.28;95000.31;5036055;28;20300;-81
2022/05/01 04:27:00;;;;;;;9.65;6.03;;;;;;;13.28;67.80;94997.50;5033537;28;20224;-81
2022/05/01 04:29:40;;;;;;;7.88;4.28;;;;;;;13.32;66.99;94993.00;5033176;28;20203;-78
2022/05/01 04:32:08;;;;;;;9.75;6.10;;;;;;;14.09;65.07;94999.44;5032924;28;20193;-82
2022/05/01 04:34:35;;;;;;;10.95;5.47;;;;;;;14.03;64.87;95000.03;5032630;28;20228;-82
2022/05/01 04:37:03;;;;;;;8.55;5.53;;;;;;;14.00;64.79;94995.25;5032698;28;20200;-78
2022/05/01 04:39:30;;;;;;;8.65;6.35;;;;;;;14.07;64.69;94996.31;5023193;28;20669;-79
2022/05/01 04:41:58;;;;;;;8.80;5.10;;;;;;;14.38;62.90;94990.25;5029912;28;20281;-82
2022/05/01 04:44:25;;;;;;;7.43;4.72;;;;;;;14.33;63.23;94989.69;5025927;28;20236;-84
2022/05/01 04:46:52;;;;;;;8.77;5.80;;;;;;;15.29;61.50;94974.22;5032824;28;20633;-77
2022/05/01 04:49:19;;;;;;;10.52;7.03;;;;;;;16.02;58.42;94973.78;5032951;28;20660;-80
2022/05/01 04:51:47;;;;;;;10.90;7.93;;;;;;;15.53;59.75;94974.09;5033167;28;20280;-80
2022/05/01 04:54:14;;;;;;;9.95;6.70;;;;;;;15.75;59.83;94974.66;5033190;28;20319;-81
2022/05/01 04:59:27;;;;;;;9.35;7.30;;;;;;;16.39;56.58;94973.50;5032188;28;20203;-83
2022/05/01 05:01:54;;;;;;;10.10;7.93;;;;;;;16.05;57.69;94984.00;5025270;28;20201;-80
2022/05/01 05:04:21;;;;;;;9.27;7.13;;;;;;;16.03;57.82;94977.31;5031804;28;20230;-73
2022/05/01 05:06:52;;;;;;;10.25;7.10;;;;;;;15.11;60.50;94978.41;5030486;28;20200;-78
2022/05/01 05:12:05;;;;;;;10.13;7.25;;;;;;;13.87;64.25;94997.97;5031916;28;20701;-78
2022/05/01 05:14:33;;;;;;;10.07;7.75;;;;;;;13.33;66.41;94997.31;5032447;28;20223;-78
2022/05/01 05:17:05;;;;;;;15.05;8.57;;;;;;;13.12;67.09;94993.78;5031118;28;20262;-78
2022/05/01 05:19:32;;;;;;;12.05;8.73;;;;;;;12.95;68.22;95004.84;5031972;28;20232;-79
2022/05/01 05:21:59;;;;;;;11.88;8.02;;;;;;;13.07;67.64;95013.03;5032322;28;20553;-79
2022/05/01 05:24:25;;;;;;;11.10;8.40;;;;;;;12.53;69.46;95014.91;5034525;28;20200;-80
2022/05/01 05:26:52;;;;;;;12.13;9.30;;;;;;;12.90;68.67;95007.75;5031704;28;20594;-80
2022/05/01 05:29:19;;;;;;;13.60;9.18;;;;;;;13.37;67.16;95000.94;5032156;28;20203;-81
2022/05/01 05:31:47;;;;;;;9.05;5.53;;;;;;;13.45;67.14;94997.34;5031215;28;20203;-81
2022/05/01 05:34:14;;;;;;;10.55;8.63;;;;;;;13.44;66.70;94998.47;5030580;28;20205;-72
2022/05/01 05:36:41;;;;;;;6.25;4.45;;;;;;;13.87;65.60;95005.34;5031083;28;20235;-79
2022/05/01 05:39:08;;;;;;;5.95;4.20;;;;;;;13.88;65.65;95010.47;5030833;28;20220;-78
2022/05/01 05:41:35;;;;;;;9.80;5.18;;;;;;;14.73;63.52;95001.47;5031157;28;20255;-79
2022/05/01 05:44:02;;;;;;;10.82;5.97;;;;;;;15.09;62.42;94999.78;5028608;28;20793;-80
2022/05/01 05:46:28;;;;;;;15.23;9.10;;;;;;;15.16;62.50;94991.81;5030690;28;20655;-79
2022/05/01 05:48:57;;;;;;;11.48;7.93;;;;;;;15.29;61.69;94991.41;5018361;28;20204;-81
2022/05/01 05:51:24;;;;;;;9.80;6.50;;;;;;;15.09;62.07;94994.31;5031684;28;20200;-80
2022/05/01 05:53:51;;;;;;;12.02;8.48;;;;;;;15.23;61.58;95000.16;5031657;28;20661;-80
2022/05/01 05:56:18;;;;;;;10.68;7.57;;;;;;;15.44;61.88;94992.59;5031817;28;20228;-79
2022/05/01 05:58:45;;;;;;;10.70;7.85;;;;;;;16.32;58.92;94995.97;5029696;28;20567;-84
2022/05/01 06:01:12;;;;;;;9.80;7.65;;;;;;;17.43;55.66;94989.00;5025717;28;20664;-79
2022/05/01 06:03:40;;;;;;;8.90;6.85;;;;;;;16.84;56.26;95001.09;5031321;28;20192;-81
2022/05/01 06:06:08;;;;;;;12.35;8.35;;;;;;;15.76;59.88;95014.50;5031112;28;20227;-81
2022/05/01 06:08:37;;;;;;;11.48;7.55;;;;;;;15.76;60.01;95009.03;5030999;28;20204;-83
2022/05/01 06:11:05;;;;;;;11.32;7.75;;;;;;;16.00;59.33;95006.13;5031073;28;20224;-86
2022/05/01 06:13:32;;;;;;;11.55;7.05;;;;;;;15.89;59.00;95018.75;5032145;28;20236;-80
2022/05/01 06:15:59;;;;;;;10.77;8.02;;;;;;;16.08;59.44;95016.13;5030999;28;20228;-74
2022/05/01 06:18:26;;;;;;;12.25;8.35;;;;;;;16.34;57.69;95019.09;5031073;28;20200;-81
2022/05/01 06:20:53;;;;;;;9.07;6.82;;;;;;;15.94;59.15;95010.28;5031655;28;20694;-79
2022/05/01 06:23:22;;;;;;;11.95;7.43;;;;;;;15.77;59.93;95005.94;5031539;28;20207;-81
2022/05/01 06:25:49;;;;;;;10.20;7.20;;;;;;;15.90;59.55;95014.84;5033192;28;20205;-72
2022/05/01 06:28:17;;;;;;;10.35;7.13;;;;;;;15.90;59.81;95014.84;5031214;28;20232;-82
2022/05/01 06:30:45;;;;;;;11.35;7.80;;;;;;;16.33;58.72;95006.56;5031438;28;20212;-82
2022/05/01 06:33:14;;;;;;;10.02;7.38;;;;;;;16.33;58.08;95006.56;5030502;28;20197;-81
2022/05/01 06:35:42;;;;;;;17.17;11.73;;;;;;;17.26;56.31;94997.66;5030838;28;20231;-79
2022/05/01 06:38:09;;;;;;;10.02;6.90;;;;;;;16.86;56.12;95015.22;5030701;28;20224;-82
2022/05/01 06:40:38;;;;;;;8.95;7.07;;;;;;;16.50;57.90;95015.56;5017308;28;20209;-74
2022/05/01 06:43:06;;;;;;;17.15;11.18;;;;;;;16.70;57.65;95009.00;5029914;28;20290;-80
2022/05/01 06:45:33;;;;;;;10.50;6.78;;;;;;;16.15;58.15;95004.53;5030387;28;20208;-75
2022/05/01 06:48:01;;;;;;;8.93;6.97;;;;;;;16.99;55.83;95011.22;5043445;28;20207;-81
2022/05/01 06:50:27;;;;;;;7.82;6.22;;;;;;;16.61;56.41;95011.13;5030626;28;20254;-81
2022/05/01 06:52:55;;;;;;;6.20;4.43;;;;;;;16.47;56.42;95010.78;5030829;28;20229;-77
2022/05/01 06:55:25;;;;;;;9.07;6.57;;;;;;;17.00;56.09;95001.06;5030134;28;20235;-82
2022/05/01 06:57:53;;;;;;;8.35;6.45;;;;;;;17.88;53.78;94991.06;5031765;28;20637;-77
2022/05/01 07:00:20;;;;;;;8.38;6.63;;;;;;;18.03;52.94;94997.59;5034426;28;20196;-86
2022/05/01 07:02:47;;;;;;;8.60;7.03;;;;;;;18.55;52.81;94996.06;5034442;28;20204;-80
2022/05/01 07:05:14;;;;;;;10.75;6.35;;;;;;;17.90;53.30;94993.44;5034755;28;20214;-75
2022/05/01 07:07:41;;;;;;;8.10;6.30;;;;;;;17.58;53.86;94992.81;5033769;28;20223;-81
2022/05/01 07:10:10;;;;;;;8.23;6.35;;;;;;;18.10;53.12;94989.47;5033752;28;20709;-84
2022/05/01 07:12:37;;;;;;;7.15;5.50;;;;;;;17.88;53.19;94984.78;5034413;28;20286;-80
2022/05/01 07:15:07;;;;;;;8.02;5.07;;;;;;;16.82;54.49;95006.13;5033723;28;20232;-82
2022/05/01 07:17:34;;;;;;;7.82;5.82;;;;;;;17.36;53.05;94997.06;5034413;28;20219;-79
2022/05/01 07:20:02;;;;;;;8.68;6.60;;;;;;;16.49;54.62;95003.03;5034476;28;20346;-82
2022/05/01 07:22:29;;;;;;;13.00;7.95;;;;;;;16.84;55.67;95008.50;5032702;28;20479;-81
2022/05/01 07:24:56;;;;;;;7.97;5.80;;;;;;;17.74;52.35;94997.09;5035583;28;20204;-83
2022/05/01 07:27:23;;;;;;;9.20;6.35;;;;;;;17.32;53.83;95001.72;5034502;28;20204;-78
2022/05/01 07:29:50;;;;;;;9.45;5.60;;;;;;;17.44;53.69;94993.34;5033588;28;20205;-73
2022/05/01 07:32:18;;;;;;;8.85;5.28;;;;;;;17.15;52.82;94991.19;5034142;28;20204;-83
2022/05/01 07:34:45;;;;;;;7.03;5.38;;;;;;;16.96;53.03;94989.22;5034178;28;20300;-81
2022/05/01 07:37:13;;;;;;;5.72;4.38;;;;;;;15.95;54.81;95001.75;5034117;28;20196;-86
2022/05/01 07:39:40;;;;;;;6.50;5.22;;;;;;;16.38;55.21;94991.03;5022883;28;20296;-77
2022/05/01 07:42:07;;;;;;;8.57;5.18;;;;;;;16.05;54.97;95000.41;5030998;28;20633;-81
2022/05/01 07:44:34;;;;;;;7.82;5.57;;;;;;;16.46;54.70;95010.00;5033071;28;20233;-82
2022/05/01 07:47:01;;;;;;;7.13;5.22;;;;;;;16.42;53.62;94997.38;5033973;28;20204;-76
2022/05/01 07:49:29;;;;;;;6.38;4.70;;;;;;;16.07;54.96;95003.59;5034168;28;20205;-81
2022/05/01 07:51:56;;;;;;;7.55;5.68;;;;;;;15.64;56.42;95005.22;5033233;28;20228;-85
2022/05/01 07:54:23;;;;;;;6.35;4.82;;;;;;;15.85;55.59;95004.22;5032970;28;20247;-81
2022/05/01 07:56:50;;;;;;;8.20;5.18;;;;;;;16.27;55.13;94991.56;5033093;28;20259;-84
2022/05/01 07:59:17;;;;;;;5.40;4.15;;;;;;;16.03;53.76;94997.22;5033664;28;20208;-75
2022/05/01 08:01:44;;;;;;;6.88;5.45;;;;;;;16.02;54.66;95000.31;5033357;28;20204;-82
2022/05/01 08:04:28;;;;;;;6.22;4.70;;;;;;;16.26;52.66;94998.19;5034479;28;20204;-84
2022/05/01 08:06:57;;;;;;;9.13;4.93;;;;;;;16.79;52.25;94990.47;5022770;28;20409;-84
2022/05/01 08:09:24;;;;;;;6.90;5.20;;;;;;;17.58;49.77;94984.59;5033514;28;20212;-88
2022/05/01 08:11:51;;;;;;;5.47;4.18;;;;;;;18.26;47.55;94983.84;5033362;28;20216;-77
2022/05/01 08:14:18;;;;;;;5.30;3.92;;;;;;;18.45;46.83;94976.31;5033453;28;20200;-79
2022/05/01 08:16:46;;;;;;;7.20;4.65;;;;;;;19.54;45.21;94974.66;5034024;28;20228;-83
2022/05/01 08:22:07;;;;;;;7.00;4.47;;;;;;;20.00;44.48;94964.09;5012504;28;20207;-84
2022/05/01 08:24:34;;;;;;;4.22;3.83;;;;;;;18.93;44.02;94960.16;5034705;28;20671;-84
2022/05/01 08:27:05;;;;;;;5.88;4.60;;;;;;;18.70;45.05;94964.97;5033822;28;20257;-82
2022/05/01 08:29:33;;;;;;;4.43;4.03;;;;;;;18.72;45.40;94963.41;5034533;28;20203;-86
2022/05/01 08:32:01;;;;;;;4.13;3.70;;;;;;;18.93;45.08;94954.66;5033499;28;20196;-81
2022/05/01 08:34:28;;;;;;;6.25;3.58;;;;;;;18.88;43.33;94963.22;5033868;28;20224;-81
2022/05/01 08:36:55;;;;;;;6.05;3.47;;;;;;;19.04;43.23;94963.84;5028461;28;20232;-76
2022/05/01 08:39:23;;;;;;;4.75;3.85;;;;;;;18.93;44.13;94962.91;5026691;28;20201;-83
2022/05/01 08:41:50;;;;;;;5.90;3.65;;;;;;;18.21;44.77;94960.25;5029740;28;20227;-86
2022/05/01 08:44:25;;;;;;;5.43;3.80;;;;;;;18.47;44.45;94957.53;5033723;28;20228;-83
2022/05/01 08:46:58;;;;;;;6.20;3.42;;;;;;;19.26;41.81;94942.13;5032938;28;20191;-78
2022/05/01 08:49:26;;;;;;;4.68;3.15;;;;;;;19.92;40.43;94940.47;5033161;28;20216;-83
2022/05/01 08:51:55;;;;;;;3.42;3.13;;;;;;;19.70;41.09;94940.25;5032997;28;20289;-77
2022/05/01 08:54:25;;;;;;;3.80;3.08;;;;;;;19.34;41.78;94938.28;5032955;28;20240;-81
2022/05/01 08:56:53;;;;;;;6.03;3.60;;;;;;;19.54;41.91;94934.22;5032634;28;20308;-80
2022/05/01 08:59:20;;;;;;;3.97;3.30;;;;;;;19.96;41.94;94933.03;5033418;28;20235;-86
2022/05/01 09:01:48;;;;;;;4.40;3.15;;;;;;;20.27;40.38;94934.47;5034408;28;20262;-84
2022/05/01 09:04:15;;;;;;;4.85;3.45;;;;;;;19.67;40.80;94941.03;5033725;28;20610;-82
2022/05/01 09:06:45;;;;;;;4.40;3.30;;;;;;;18.30;42.85;94935.34;5032406;28;20204;-84
2022/05/01 09:09:17;;;;;;;5.03;3.22;;;;;;;17.66;44.02;94946.03;5033599;28;20196;-84
2022/05/01 09:14:31;;;;;;;4.53;3.03;;;;;;;18.44;42.38;94925.38;5031912;28;20563;-76
2022/05/01 09:17:15;;;;;;;3.40;2.70;;;;;;;18.79;41.96;94921.53;5031880;28;20228;-70
2022/05/01 09:19:44;;;;;;;3.58;2.60;;;;;;;18.87;40.63;94925.94;5031529;28;20231;-80
2022/05/01 09:22:12;;;;;;;3.85;2.72;;;;;;;18.73;42.14;94909.28;5033108;28;20201;-84
2022/05/01 09:24:41;;;;;;;3.08;2.15;;;;;;;18.70;39.83;94910.84;5034897;28;20196;-74
2022/05/01 09:27:25;;;;;;;2.65;2.30;;;;;;;18.27;40.85;94914.91;5032181;28;20203;-81
2022/05/01 09:30:07;;;;;;;3.45;2.45;;;;;;;18.55;41.72;94908.25;5031699;28;20701;-79
2022/05/01 09:32:38;;;;;;;2.78;2.33;;;;;;;18.74;40.15;94906.19;5031513;28;20196;-85
2022/05/01 09:35:06;;;;;;;2.88;2.20;;;;;;;18.96;39.20;94901.75;5031734;28;20205;-84
2022/05/01 09:37:33;;;;;;;1.80;1.70;;;;;;;18.68;36.53;94901.41;5031814;28;20267;-86
2022/05/01 09:40:00;;;;;;;3.95;2.30;;;;;;;18.01;38.75;94895.72;5032715;28;20205;-79
2022/05/01 09:42:34;;;;;;;2.72;2.10;;;;;;;18.15;39.62;94890.44;5032326;28;20693;-84
2022/05/01 09:45:11;;;;;;;1.90;1.77;;;;;;;18.74;36.79;94888.91;5031665;28;20234;-81
2022/05/01 09:47:41;;;;;;;2.22;2.03;;;;;;;19.23;36.98;94876.94;5030454;28;20646;-80
2022/05/01 09:50:10;;;;;;;2.20;1.75;;;;;;;19.85;36.09;94881.50;5031436;28;20848;-70
2022/05/01 09:53:01;;;;;;;2.38;2.00;;;;;;;19.97;36.68;94882.34;5032051;28;20632;-78
2022/05/01 09:55:29;;;;;;;2.70;2.15;;;;;;;19.22;36.88;94884.41;5019205;28;20209;-83
2022/05/01 09:58:06;;;;;;;5.78;2.20;;;;;;;19.60;36.55;94879.69;5030896;28;20212;-83
2022/05/01 10:00:38;;;;;;;2.60;1.85;;;;;;;19.59;35.77;94873.41;5031498;28;20192;-82
2022/05/01 10:03:26;;;;;;;2.22;1.73;;;;;;;19.93;35.46;94867.81;5044602;28;20212;-78
2022/05/01 10:05:54;;;;;;;4.38;2.20;;;;;;;20.65;35.00;94864.34;5031097;28;20201;-77
2022/05/01 10:08:22;;;;;;;3.70;1.63;;;;;;;19.97;34.54;94860.34;5045065;28;20208;-79
2022/05/01 10:10:51;;;;;;;2.55;2.10;;;;;;;19.01;36.55;94854.72;5031727;28;20228;-83
2022/05/01 10:13:19;;;;;;;2.70;1.77;;;;;;;19.09;36.04;94861.91;5018184;28;20662;-80
2022/05/01 10:15:47;;;;;;;1.85;1.67;;;;;;;18.48;36.86;94859.56;5030936;28;20227;-87
2022/05/01 10:18:15;;;;;;;3.78;2.15;;;;;;;19.15;37.07;94849.41;5029933;28;20465;-79
2022/05/01 10:20:43;;;;;;;2.00;1.80;;;;;;;19.52;34.69;94848.63;5031403;28;20567;-84
2022/05/01 10:23:11;;;;;;;2.30;1.58;;;;;;;19.71;34.71;94837.38;5031354;28;20232;-75
2022/05/01 10:25:42;;;;;;;2.35;2.00;;;;;;;18.70;35.11;94849.69;5033238;28;20197;-83
2022/05/01 10:28:23;;;;;;;1.75;1.58;;;;;;;18.29;36.25;94844.03;5030524;28;20262;-78
2022/05/01 10:34:18;;;;;;;2.30;1.67;;;;;;;19.77;34.49;94835.88;5030708;28;20208;-80
2022/05/01 10:37:09;;;;;;;3.97;1.88;;;;;;;19.55;35.69;94834.09;5031020;28;20228;-82
2022/05/01 10:39:40;;;;;;;2.75;1.80;;;;;;;19.79;34.73;94822.53;5028830;28;20208;-80
2022/05/01 10:42:07;;;;;;;2.55;1.88;;;;;;;19.51;35.24;94819.56;5030199;28;20224;-77
2022/05/01 10:44:39;;;;;;;2.00;1.80;;;;;;;19.09;35.09;94834.44;5030176;28;20224;-86
2022/05/01 10:47:12;;;;;;;2.67;1.65;;;;;;;19.04;34.62;94809.25;5031682;28;20204;-85
2022/05/01 10:49:42;;;;;;;2.20;2.00;;;;;;;19.39;35.08;94808.84;5031048;28;20219;-86
2022/05/01 10:52:17;;;;;;;3.85;2.13;;;;;;;19.53;35.08;94803.50;5018266;28;20220;-80
2022/05/01 10:54:52;;;;;;;2.70;1.70;;;;;;;20.18;35.00;94800.00;5028298;28;20283;-85
2022/05/01 10:57:20;;;;;;;3.05;1.90;;;;;;;20.02;35.04;94796.75;5030582;28;20231;-83
2022/05/01 11:00:04;;;;;;;2.95;1.92;;;;;;;19.90;35.82;94802.56;5030819;28;20211;-78
2022/05/01 11:02:38;;;;;;;3.42;1.67;;;;;;;19.29;34.71;94801.25;5030522;28;20192;-84
2022/05/01 11:05:07;;;;;;;4.05;1.85;;;;;;;18.68;35.73;94791.63;5017434;28;20230;-85
2022/05/01 11:07:37;;;;;;;3.70;2.03;;;;;;;19.03;36.39;94797.50;5031163;28;20200;-84
2022/05/01 11:10:07;;;;;;;2.88;1.70;;;;;;;19.42;35.20;94802.56;5031272;28;20224;-86
2022/05/01 11:12:35;;;;;;;2.15;1.70;;;;;;;19.30;35.74;94800.09;5043978;28;20211;-83
2022/05/01 11:15:05;;;;;;;2.95;1.70;;;;;;;19.85;34.82;94788.00;5030608;28;20230;-77
2022/05/01 11:17:52;;;;;;;1.58;1.48;;;;;;;19.15;35.05;94783.47;5027914;28;20239;-72
2022/05/01 11:20:34;;;;;;;2.53;1.50;;;;;;;18.60;35.79;94790.75;5029254;28;20215;-79
2022/05/01 11:23:30;;;;;;;2.03;1.80;;;;;;;18.73;36.38;94786.56;5016595;28;20579;-80
2022/05/01 11:26:15;;;;;;;2.33;1.83;;;;;;;19.25;35.28;94787.50;5017494;28;20267;-81
2022/05/01 11:28:46;;;;;;;2.38;1.60;;;;;;;18.69;35.45;94782.25;5023263;28;20209;-77
2022/05/01 11:31:44;;;;;;;2.53;2.00;;;;;;;18.24;37.45;94783.22;5029673;28;20197;-76
2022/05/01 11:34:39;;;;;;;2.72;2.00;;;;;;;18.09;38.25;94782.25;5029628;28;20204;-80
2022/05/01 11:37:08;;;;;;;3.05;1.73;;;;;;;17.91;38.32;94789.41;5030352;28;20243;-81
2022/05/01 11:40:20;;;;;;;1.70;1.60;;;;;;;18.16;37.35;94776.88;5019659;28;20229;-79
2022/05/01 11:42:47;;;;;;;1.85;1.70;;;;;;;18.58;36.75;94771.16;5010088;28;20276;-79
2022/05/01 11:45:15;;;;;;;2.83;2.10;;;;;;;18.33;36.83;94776.28;5041684;28;20330;-80
2022/05/01 11:47:43;;;;;;;3.65;2.25;;;;;;;18.51;37.59;94764.75;5033772;28;20213;-78
2022/05/01 11:50:24;;;;;;;4.65;2.25;;;;;;;18.46;37.67;94769.38;5033247;28;20834;-80
2022/05/01 11:52:53;;;;;;;3.15;2.00;;;;;;;18.54;38.18;94764.00;5032345;28;20200;-79
2022/05/01 11:55:20;;;;;;;2.63;1.90;;;;;;;18.62;37.97;94765.69;5020257;28;20213;-77
2022/05/01 12:03:55;;;;;;;3.60;2.20;;;;;;;17.97;38.80;94768.78;5022950;28;20270;-83
2022/05/01 12:06:25;;;;;;;1.80;1.70;;;;;;;18.00;39.19;94746.88;5027510;28;20201;-78
2022/05/01 12:09:05;;;;;;;3.38;2.20;;;;;;;18.59;39.86;94752.69;5033761;28;20224;-81
2022/05/01 12:11:33;;;;;;;3.20;2.40;;;;;;;18.85;38.25;94738.88;5033319;28;20725;-81
2022/05/01 12:14:04;;;;;;;3.13;2.08;;;;;;;18.88;37.92;94746.34;5033087;28;20243;-78
2022/05/01 12:16:31;;;;;;;2.42;2.22;;;;;;;18.60;38.62;94741.34;5020011;28;20315;-78
2022/05/01 12:19:00;;;;;;;4.10;2.22;;;;;;;18.67;38.58;94729.69;5033132;28;20659;-80